Flight Track Log - Related Links

Times and Time Zones

All times are in EDT time to prevent confusion due to time zone crossing. See the DAL268 flight status page for this flight to view local times or setup timezone preferences in your user account.

Time Position Orientation Groundspeed Altitude Reporting Facility
EDT Latitude Longitude Course Direction KTS MPH feet Rate Location/Type
Wed 12:05:33 AM 40.6370 -73.7790 North 2 2  Level FlightAware ADS-B
Wed 12:06:01 AM 40.6380 -73.7790 360° North 2 2 33 Level FlightAware ADS-B
Wed 12:08:00 AM 40.5951 -73.4303 108° East  Level FlightAware Approximate
Wed 12:08:33 AM 40.6370 -73.7790 108° East 2 2  Level FlightAware ADS-B
Wed 12:10:35 AM 40.6360 -73.7790 180° South 2 2 38 Level FlightAware ADS-B
Wed 12:13:00 AM 40.5833 -73.3538 90° East  Level FlightAware Approximate
Wed 12:14:00 AM 40.5617 -73.1785 97° East  Level FlightAware Approximate
Wed 12:15:00 AM 40.5512 -72.9977 57° Northeast  Level FlightAware Approximate
Wed 12:16:00 AM 40.5910 -72.8271 66° East  Level FlightAware Approximate
Wed 12:17:00 AM 40.6333 -72.6564 90° East  Level FlightAware Approximate
Wed 12:17:38 AM 40.6350 -73.7770 143° Southeast 16 18  Level FlightAware ADS-B
Wed 12:18:16 AM 40.6360 -73.7760 37° Northeast 21 24 65 Level FlightAware ADS-B
Wed 12:19:07 AM 40.6360 -73.7750 90° East 17 20 69 Level FlightAware ADS-B
Wed 12:19:48 AM 40.6350 -73.7730 123° Southeast 24 28 74 Level FlightAware ADS-B
Wed 12:20:29 AM 40.6340 -73.7700 114° Southeast 25 29 79 Level FlightAware ADS-B
Wed 12:21:11 AM 40.6330 -73.7690 143° Southeast 20 23 85 Level FlightAware ADS-B
Wed 12:21:52 AM 40.6310 -73.7700 201° Southwest 15 17 92 Level FlightAware ADS-B
Wed 12:22:55 AM 40.6300 -73.7700 180° South 17 20 100 Level FlightAware ADS-B
Wed 12:23:16 AM 40.6300 -73.7710 270° West 11 13 115 Level FlightAware ADS-B
Wed 12:24:17 AM 40.6290 -73.7710 180° South 9 10 121 Level FlightAware ADS-B
Wed 12:27:00 AM 40.5833 -73.2934 90° East  Level FlightAware Approximate
Wed 12:27:39 AM 40.6280 -73.7720 90° East 12 14  Level FlightAware ADS-B
Wed 12:28:40 AM 40.6310 -73.7790 299° West 86 99 358 Level FlightAware ADS-B
Wed 12:29:24 AM 40.6470 -73.8140 301° West 196 226 658 Level FlightAware ADS-B
Wed 12:29:53 AM 40.6570 -73.8460 292° West 199 229 800 1,368 Climbing FlightAware ADS-B
Wed 12:30:21 AM 40.6440 -73.8760 240° Southwest 223 257 1,300 1,167 Climbing FlightAware ADS-B
Wed 12:30:29 AM 40.6370 -73.8830 217° Southwest 225 259 1,500 1,455 Climbing FlightAware ADS-B
Wed 12:30:54 AM 40.6130 -73.8930 198° South 222 255 2,100 1,286 Climbing FlightAware ADS-B
Wed 12:31:25 AM 40.5880 -73.8680 143° Southeast 223 257 2,700 1,435 Climbing FlightAware ADS-B
Wed 12:31:40 AM 40.5810 -73.8510 118° Southeast 218 251 3,200 1,364 Climbing FlightAware ADS-B
Wed 12:32:09 AM 40.5660 -73.8160 119° Southeast 233 268 3,700 947 Climbing FlightAware ADS-B
Wed 12:32:37 AM 40.5505 -73.7789 119° Southeast 255 293 4,100 1,000 Climbing FlightAware ADS-B
Wed 12:32:51 AM 40.5448 -73.7585 110° East 259 298 4,400 1,200 Climbing FlightAware ADS-B
Wed 12:32:57 AM 40.5435 -73.7493 101° East 260 299 4,500 1,200 Climbing FlightAware ADS-B
Wed 12:33:06 AM 40.5429 -73.7351 93° East 263 303 4,700 706 Climbing FlightAware ADS-B
Wed 12:33:14 AM 40.5436 -73.7220 86° East 268 308 4,700 500 Level FlightAware ADS-B
Wed 12:33:30 AM 40.5454 -73.6949 85° East 285 328 4,900 938 Climbing FlightAware ADS-B
Wed 12:33:46 AM 40.5468 -73.6660 86° East 300 345 5,200 1,688 Climbing FlightAware ADS-B
Wed 12:34:02 AM 40.5480 -73.6367 87° East 301 346 5,800 2,516 Climbing FlightAware ADS-B
Wed 12:34:17 AM 40.5483 -73.6075 89° East 299 344 6,500 2,400 Climbing FlightAware ADS-B
Wed 12:34:32 AM 40.5482 -73.5801 90° East 303 349 7,000 1,935 Climbing FlightAware ADS-B
Wed 12:34:48 AM 40.5481 -73.5520 90° East 310 357 7,500 2,063 Climbing FlightAware ADS-B
Wed 12:35:04 AM 40.5486 -73.5218 89° East 311 358 8,100 2,400 Climbing FlightAware ADS-B
Wed 12:35:13 AM 40.5495 -73.5030 86° East 308 354 8,500 2,727 Climbing FlightAware ADS-B
Wed 12:35:26 AM 40.5517 -73.4791 83° East 304 350 9,100 1,929 Climbing FlightAware ADS-B
Wed 12:35:41 AM 40.5553 -73.4513 80° East 312 359 9,400 1,355 Climbing FlightAware ADS-B
Wed 12:35:57 AM 40.5592 -73.4208 80° East 322 371 9,800 1,660 Climbing FlightAware ADS-B
Wed 12:36:28 AM 40.5674 -73.3623 80° East 329 379 10,700 1,627 Climbing FlightAware ADS-B
Wed 12:36:56 AM 40.5739 -73.3057 81° East 345 397 11,400 1,300 Climbing FlightAware ADS-B
Wed 12:37:28 AM 40.5797 -73.2362 84° East 367 422 12,000 1,355 Climbing FlightAware ADS-B
Wed 12:37:58 AM 40.5868 -73.1689 82° East 378 435 12,800 1,200 Climbing FlightAware ADS-B
Wed 12:38:28 AM 40.5949 -73.0981 81° East 403 464 13,200 1,100 Climbing FlightAware ADS-B
Wed 12:38:58 AM 40.6030 -73.0234 82° East 421 484 13,900 1,279 Climbing FlightAware ADS-B
Wed 12:39:29 AM 40.6122 -72.9404 82° East 439 505 14,500 1,645 Climbing FlightAware ADS-B
Wed 12:40:00 AM 40.6216 -72.8607 81° East 444 511 15,600 2,000 Climbing FlightAware ADS-B
Wed 12:40:32 AM 40.6307 -72.7742 82° East 450 518 16,600 1,946 Climbing FlightAware ADS-B
Wed 12:41:14 AM 40.6429 -72.6599 82° East 454 522 18,000 1,735 Climbing FlightAware ADS-B
Wed 12:41:55 AM 40.6556 -72.5436 82° East 457 526 19,000 1,481 Climbing FlightAware ADS-B
Wed 12:42:31 AM 40.6660 -72.4450 82° East 473 544 19,900 1,558 Climbing FlightAware ADS-B
Wed 12:43:12 AM 40.6780 -72.3290 82° East 479 551 21,000 1,533 Climbing FlightAware ADS-B
Wed 12:44:01 AM 40.6929 -72.1832 82° East 490 564 22,200 1,768 Climbing FlightAware ADS-B
Wed 12:44:47 AM 40.7079 -72.0491 82° East 482 555 23,800 1,636 Climbing FlightAware ADS-B
Wed 12:45:18 AM 40.7182 -71.9582 81° East 493 567 24,300 984 Climbing FlightAware ADS-B
Wed 12:45:48 AM 40.7278 -71.8679 82° East 500 575 24,800 1,200 Climbing FlightAware ADS-B
Wed 12:46:18 AM 40.7367 -71.7744 83° East 503 579 25,500 1,169 Climbing FlightAware ADS-B
Wed 12:47:05 AM 40.7507 -71.6334 82° East 504 580 26,300 1,116 Climbing FlightAware ADS-B
Wed 12:47:44 AM 40.7627 -71.5128 82° East 514 592 27,100 305 Climbing FlightAware ADS-B
Wed 12:49:03 AM 40.7840 -71.3110 82° East 512 589 26,900 -104 Descending FlightAware ADS-B
Wed 12:49:39 AM 40.7940 -71.2160 82° East 512 589 26,900  Level FlightAware ADS-B
Wed 12:50:27 AM 40.8080 -71.0900 82° East 512 589 26,900 2,220 Level FlightAware ADS-B
Wed 12:51:19 AM 40.8200 -70.8650 86° East 515 593 30,600 2,494 Climbing FlightAware ADS-B
Wed 12:51:56 AM 40.8280 -70.7660 84° East 515 593 30,600  Level FlightAware ADS-B
Wed 12:52:32 AM 40.8360 -70.6700 84° East 515 593 30,600  Level FlightAware ADS-B
Wed 12:53:20 AM 40.8460 -70.5420 84° East 515 593 30,600  Level FlightAware ADS-B
Wed 12:53:56 AM 40.8540 -70.4470 84° East 515 593 30,600  Level FlightAware ADS-B
Wed 12:54:44 AM 40.8640 -70.3190 84° East 515 593 30,600  Level FlightAware ADS-B
Wed 12:55:20 AM 40.8710 -70.2230 84° East 515 593 30,600 253 Level FlightAware ADS-B
Wed 12:56:19 AM 40.9058 -69.9375 84° East 521 600 31,000 238 Climbing New York Center
Wed 12:57:01 AM 40.9167 -69.7833 84° East 523 602 31,000  Level New York Oceanic (ODAPS)
Wed 12:58:19 AM 40.9361 -69.5581 84° East 521 600 31,000  Level New York Center
Wed 12:59:19 AM 40.9506 -69.3656 84° East 521 600 31,000  Level New York Center
Wed 01:00:20 AM 40.9650 -69.1786 84° East 521 600 31,000  Level New York Center
Wed 01:01:18 AM 40.9831 -68.9831 83° East 521 600 31,000  Level New York Center
Wed 01:02:19 AM 40.9947 -68.7931 85° East 521 600 31,000  Level New York Center
Wed 01:03:19 AM 41.0083 -68.6031 85° East 521 600 31,000  Level New York Center
Wed 01:04:20 AM 41.0236 -68.4128 84° East 521 600 31,000  Level New York Center
Wed 01:05:19 AM 41.0364 -68.2200 85° East 521 600 31,000  Level New York Center
Wed 01:06:17 AM 41.0489 -68.0269 85° East 521 600 31,000  Level New York Center
Wed 01:07:19 AM 41.0650 -67.8281 84° East 527 606 31,000  Level New York Center
Wed 01:08:20 AM 41.0769 -67.6350 85° East 527 606 31,000  Level New York Center
Wed 01:10:00 AM 41.0893 -67.3158 87° East  Level FlightAware Approximate
Wed 01:11:41 AM 41.1167 -67.0000 78° East 526 605 31,000  Level New York Oceanic (ODAPS)
Wed 01:17:00 AM 41.2678 -66.0033 78° East  Level FlightAware Approximate
Wed 01:17:16 AM 41.2833 -65.9000 79° East 523 602 31,000  Level New York Oceanic (ODAPS)
Wed 01:18:00 AM 41.3162 -65.6910 79° East 526 605 31,000  Level FlightAware Transoceanic
Wed 01:19:00 AM 41.3434 -65.5034 79° East 526 605 31,000  Level FlightAware Transoceanic
Wed 01:20:00 AM 41.3704 -65.3156 79° East 526 605 31,000  Level FlightAware Transoceanic
Wed 01:21:00 AM 41.3971 -65.1276 79° East 526 605 31,000  Level FlightAware Transoceanic
Wed 01:22:00 AM 41.4235 -64.9395 79° East 526 605 31,000  Level FlightAware Transoceanic
Wed 01:23:00 AM 41.4455 -64.7687 80° East 523 602 31,000  Level FlightAware Transoceanic
Wed 01:24:00 AM 41.4714 -64.5796 80° East 523 602 31,000  Level FlightAware Transoceanic
Wed 01:25:00 AM 41.4971 -64.3904 80° East 523 602 31,000  Level FlightAware Transoceanic
Wed 01:26:00 AM 41.5224 -64.2010 80° East 523 602 31,000  Level FlightAware Transoceanic
Wed 01:27:00 AM 41.5474 -64.0114 80° East 523 602 31,000  Level FlightAware Transoceanic
Wed 01:28:00 AM 41.5721 -63.8218 80° East 523 602 31,000  Level FlightAware Transoceanic
Wed 01:29:00 AM 41.5965 -63.6319 80° East 523 602 31,000  Level FlightAware Transoceanic
Wed 01:30:00 AM 41.6206 -63.4420 80° East 523 602 31,000  Level FlightAware Transoceanic
Wed 01:31:00 AM 41.6443 -63.2519 81° East 523 602 31,000  Level FlightAware Transoceanic
Wed 01:32:00 AM 41.6678 -63.0616 81° East 523 602 31,000  Level FlightAware Transoceanic
Wed 01:33:00 AM 41.6909 -62.8712 81° East 523 602 31,000  Level FlightAware Transoceanic
Wed 01:34:00 AM 41.7137 -62.6807 81° East 523 602 31,000  Level FlightAware Transoceanic
Wed 01:35:00 AM 41.7363 -62.4900 81° East 523 602 31,000  Level FlightAware Transoceanic
Wed 01:36:00 AM 41.7584 -62.2992 81° East 523 602 31,000  Level FlightAware Transoceanic
Wed 01:37:00 AM 41.7803 -62.1083 81° East 523 602 31,000  Level FlightAware Transoceanic
Wed 01:37:32 AM 41.8000 -61.9667 82° East 535 616 31,000  Level New York Oceanic (ODAPS)
Wed 01:38:00 AM 41.8019 -61.9173 81° East 523 602 31,000  Level FlightAware Transoceanic
Wed 01:39:00 AM 41.8231 -61.7261 82° East 523 602 31,000  Level FlightAware Transoceanic
Wed 01:40:00 AM 41.8441 -61.5348 82° East 523 602 31,000  Level FlightAware Transoceanic
Wed 01:41:00 AM 41.8647 -61.3433 82° East 523 602 31,000  Level FlightAware Transoceanic
Wed 01:42:00 AM 41.8850 -61.1518 82° East 523 602 31,000  Level FlightAware Transoceanic
Wed 01:43:00 AM 41.9240 -60.7881 82° East 535 616 31,000  Level FlightAware Transoceanic
Wed 01:44:00 AM 41.9435 -60.5913 82° East 535 616 31,000  Level FlightAware Transoceanic
Wed 01:45:00 AM 41.9627 -60.3943 83° East 535 616 31,000  Level FlightAware Transoceanic
Wed 01:46:00 AM 41.9815 -60.1972 83° East 535 616 31,000  Level FlightAware Transoceanic
Wed 01:47:00 AM 42.0000 -60.0000 71° East 535 616 31,000  Level FlightAware Transoceanic
Wed 01:48:00 AM 42.0493 -59.8027 71° East 535 616 31,000  Level FlightAware Transoceanic
Wed 01:49:00 AM 42.0983 -59.6051 72° East 535 616 31,000  Level FlightAware Transoceanic
Wed 01:49:07 AM 42.0000 -60.0000 71° East 532 612 31,000  Level New York Oceanic (ODAPS)
Wed 01:50:00 AM 42.1470 -59.4073 72° East 535 616 31,000  Level FlightAware Transoceanic
Wed 01:51:00 AM 42.1953 -59.2091 72° East 535 616 31,000  Level FlightAware Transoceanic
Wed 01:52:00 AM 42.2433 -59.0106 72° East 535 616 31,000  Level FlightAware Transoceanic
Wed 01:53:00 AM 42.2909 -58.8118 72° East 535 616 31,000  Level FlightAware Transoceanic
Wed 01:54:00 AM 42.3382 -58.6127 72° East 535 616 31,000  Level FlightAware Transoceanic
Wed 01:55:00 AM 42.3635 -58.5054 72° East 532 612 31,000  Level FlightAware Transoceanic
Wed 01:56:00 AM 42.4076 -58.3174 72° East 532 612 31,000  Level FlightAware Transoceanic
Wed 01:57:00 AM 42.4513 -58.1291 73° East 532 612 31,000  Level FlightAware Transoceanic
Wed 01:57:48 AM 42.4833 -58.0000 73° East 534 615 31,000  Level New York Oceanic (ODAPS)
Wed 01:58:00 AM 42.4948 -57.9405 73° East 532 612 31,000  Level FlightAware Transoceanic
Wed 01:59:00 AM 42.5379 -57.7517 73° East 532 612 31,000  Level FlightAware Transoceanic
Wed 02:00:00 AM 42.5808 -57.5627 73° East 532 612 31,000  Level FlightAware Transoceanic
Wed 02:01:00 AM 42.6233 -57.3733 73° East 532 612 31,000  Level FlightAware Transoceanic
Wed 02:02:00 AM 42.6655 -57.1837 73° East 532 612 31,000  Level FlightAware Transoceanic
Wed 02:03:00 AM 42.7074 -56.9939 73° East 532 612 31,000  Level FlightAware Transoceanic
Wed 02:04:00 AM 42.7460 -56.8262 73° East 534 615 31,000  Level FlightAware Transoceanic
Wed 02:05:00 AM 42.7886 -56.6296 74° East 534 615 31,000  Level FlightAware Transoceanic
Wed 02:06:00 AM 42.8308 -56.4327 74° East 534 615 31,000  Level FlightAware Transoceanic
Wed 02:07:00 AM 42.8728 -56.2356 74° East 534 615 31,000  Level FlightAware Transoceanic
Wed 02:08:00 AM 42.9143 -56.0382 74° East 534 615 31,000  Level FlightAware Transoceanic
Wed 02:09:00 AM 42.9556 -55.8405 74° East 534 615 31,000  Level FlightAware Transoceanic
Wed 02:10:00 AM 42.9965 -55.6426 74° East 534 615 31,000  Level FlightAware Transoceanic
Wed 02:11:00 AM 43.0371 -55.4444 74° East 534 615 31,000  Level FlightAware Transoceanic
Wed 02:12:00 AM 43.0773 -55.2460 75° East 534 615 31,000  Level FlightAware Transoceanic
Wed 02:13:00 AM 43.1172 -55.0473 75° East 534 615 31,000  Level FlightAware Transoceanic
Wed 02:14:00 AM 43.1567 -54.8483 75° East 534 615 31,000  Level FlightAware Transoceanic
Wed 02:15:00 AM 43.1959 -54.6491 75° East 534 615 31,000  Level FlightAware Transoceanic
Wed 02:16:00 AM 43.2347 -54.4496 75° East 534 615 31,000  Level FlightAware Transoceanic
Wed 02:17:00 AM 43.2733 -54.2499 75° East 534 615 31,000  Level FlightAware Transoceanic
Wed 02:18:00 AM 43.3114 -54.0499 75° East 534 615 31,000  Level FlightAware Transoceanic
Wed 02:18:36 AM 43.3333 -53.9000 75° East 557 641 31,000  Level New York Oceanic (ODAPS)
Wed 02:19:00 AM 43.3492 -53.8496 76° East 534 615 31,000  Level FlightAware Transoceanic
Wed 02:20:00 AM 43.3867 -53.6492 76° East 534 615 31,000  Level FlightAware Transoceanic
Wed 02:21:00 AM 43.4238 -53.4484 76° East 534 615 31,000  Level FlightAware Transoceanic
Wed 02:22:00 AM 43.4605 -53.2475 76° East 534 615 31,000  Level FlightAware Transoceanic
Wed 02:23:00 AM 43.4969 -53.0462 76° East 534 615 31,000  Level FlightAware Transoceanic
Wed 02:24:00 AM 43.5330 -52.8448 76° East 534 615 31,000  Level FlightAware Transoceanic
Wed 02:25:00 AM 43.5943 -52.4733 76° East 557 641 31,000  Level FlightAware Transoceanic
Wed 02:26:00 AM 43.6302 -52.2685 76° East 557 641 31,000  Level FlightAware Transoceanic
Wed 02:27:00 AM 43.6656 -52.0634 77° East 557 641 31,000  Level FlightAware Transoceanic
Wed 02:28:00 AM 43.7007 -51.8582 77° East 557 641 31,000  Level FlightAware Transoceanic
Wed 02:29:00 AM 43.7355 -51.6526 77° East 557 641 31,000  Level FlightAware Transoceanic
Wed 02:30:00 AM 43.7699 -51.4469 77° East 557 641 31,000  Level FlightAware Transoceanic
Wed 02:31:00 AM 43.8038 -51.2408 77° East 557 641 31,000  Level FlightAware Transoceanic
Wed 02:32:00 AM 43.8375 -51.0346 77° East 557 641 31,000  Level FlightAware Transoceanic
Wed 02:33:00 AM 43.8707 -50.8282 77° East 557 641 31,000  Level FlightAware Transoceanic
Wed 02:34:00 AM 43.9036 -50.6214 78° East 557 641 31,000  Level FlightAware Transoceanic
Wed 02:35:00 AM 43.9361 -50.4145 78° East 557 641 31,000  Level FlightAware Transoceanic
Wed 02:36:00 AM 43.9682 -50.2074 78° East 557 641 31,000 -1,348 Level FlightAware Transoceanic
Wed 02:36:29 AM 44.0000 -50.0000 63° Northeast 568 654 29,000  Descending New York Oceanic (ODAPS)
Wed 02:37:00 AM 44.0000 -50.0000 63° Northeast 557 641 31,000 1,319 Climbing FlightAware Transoceanic
Wed 02:38:00 AM 44.0726 -49.7985 63° Northeast 557 641 31,000  Level FlightAware Transoceanic
Wed 02:39:00 AM 44.1449 -49.5964 64° Northeast 557 641 31,000  Level FlightAware Transoceanic
Wed 02:40:00 AM 44.2168 -49.3939 64° Northeast 557 641 31,000  Level FlightAware Transoceanic
Wed 02:41:00 AM 44.2883 -49.1909 64° Northeast 557 641 31,000 -1,000 Level FlightAware Transoceanic
Wed 02:42:00 AM 44.4215 -48.8089 64° Northeast 568 654 29,000 -1,000 Descending FlightAware Transoceanic
Wed 02:43:00 AM 44.4905 -48.6087 64° Northeast 568 654 29,000  Level FlightAware Transoceanic
Wed 02:44:00 AM 44.5592 -48.4081 64° Northeast 568 654 29,000  Level FlightAware Transoceanic
Wed 02:45:00 AM 44.6275 -48.2070 65° Northeast 568 654 29,000  Level FlightAware Transoceanic
Wed 02:46:00 AM 44.6955 -48.0053 65° Northeast 568 654 29,000  Level FlightAware Transoceanic
Wed 02:47:00 AM 44.7631 -47.8033 65° Northeast 568 654 29,000  Level FlightAware Transoceanic
Wed 02:48:00 AM 44.8304 -47.6007 65° Northeast 568 654 29,000  Level FlightAware Transoceanic
Wed 02:49:00 AM 44.8973 -47.3977 65° Northeast 568 654 29,000  Level FlightAware Transoceanic
Wed 02:50:00 AM 44.9638 -47.1942 65° Northeast 568 654 29,000  Level FlightAware Transoceanic
Wed 02:51:00 AM 45.0300 -46.9903 65° Northeast 568 654 29,000  Level FlightAware Transoceanic
Wed 02:52:00 AM 45.0959 -46.7859 66° East 568 654 29,000  Level FlightAware Transoceanic
Wed 02:53:00 AM 45.1613 -46.5810 66° East 568 654 29,000  Level FlightAware Transoceanic
Wed 02:54:00 AM 45.2264 -46.3756 66° East 568 654 29,000  Level FlightAware Transoceanic
Wed 02:55:00 AM 45.2911 -46.1698 66° East 568 654 29,000  Level FlightAware Transoceanic
Wed 02:56:00 AM 45.3555 -45.9635 66° East 568 654 29,000  Level FlightAware Transoceanic
Wed 02:57:00 AM 45.4194 -45.7567 66° East 568 654 29,000  Level FlightAware Transoceanic
Wed 02:58:00 AM 45.4831 -45.5495 66° East 568 654 29,000  Level FlightAware Transoceanic
Wed 02:59:00 AM 45.5463 -45.3418 67° East 568 654 29,000  Level FlightAware Transoceanic
Wed 03:00:00 AM 45.6091 -45.1336 67° East 568 654 29,000  Level FlightAware Transoceanic
Wed 03:01:00 AM 45.6716 -44.9249 67° East 568 654 29,000  Level FlightAware Transoceanic
Wed 03:02:00 AM 45.7337 -44.7158 67° East 568 654 29,000  Level FlightAware Transoceanic
Wed 03:03:00 AM 45.7954 -44.5063 67° East 568 654 29,000  Level FlightAware Transoceanic
Wed 03:04:00 AM 45.8567 -44.2962 67° East 568 654 29,000  Level FlightAware Transoceanic
Wed 03:05:00 AM 45.9176 -44.0857 67° East 568 654 29,000  Level FlightAware Transoceanic
Wed 03:06:00 AM 45.9782 -43.8748 68° East 568 654 29,000  Level FlightAware Transoceanic
Wed 03:07:00 AM 46.0384 -43.6634 68° East 568 654 29,000  Level FlightAware Transoceanic
Wed 03:08:00 AM 46.0981 -43.4515 68° East 568 654 29,000  Level FlightAware Transoceanic
Wed 03:09:00 AM 46.1575 -43.2392 68° East 568 654 29,000  Level FlightAware Transoceanic
Wed 03:10:00 AM 46.2165 -43.0264 68° East 568 654 29,000  Level FlightAware Transoceanic
Wed 03:11:00 AM 46.2751 -42.8131 68° East 568 654 29,000  Level FlightAware Transoceanic
Wed 03:12:00 AM 46.3333 -42.5994 69° East 568 654 29,000  Level FlightAware Transoceanic
Wed 03:13:00 AM 46.3911 -42.3853 69° East 568 654 29,000  Level FlightAware Transoceanic
Wed 03:14:00 AM 46.4485 -42.1707 69° East 568 654 29,000  Level FlightAware Transoceanic
Wed 03:15:00 AM 46.5055 -41.9556 69° East 568 654 29,000  Level FlightAware Transoceanic
Wed 03:16:00 AM 46.5620 -41.7401 69° East 568 654 29,000  Level FlightAware Transoceanic
Wed 03:17:00 AM 46.6182 -41.5241 69° East 568 654 29,000  Level FlightAware Transoceanic
Wed 03:18:00 AM 46.6740 -41.3077 70° East 568 654 29,000  Level FlightAware Transoceanic
Wed 03:19:00 AM 46.7294 -41.0909 70° East 568 654 29,000  Level FlightAware Transoceanic
Wed 03:20:00 AM 46.7843 -40.8736 70° East 568 654 29,000  Level FlightAware Transoceanic
Wed 03:21:00 AM 46.8389 -40.6558 70° East 568 654 29,000  Level FlightAware Transoceanic
Wed 03:22:00 AM 46.8930 -40.4377 70° East 568 654 29,000  Level FlightAware Transoceanic
Wed 03:23:00 AM 46.9467 -40.2191 70° East 568 654 29,000  Level FlightAware Transoceanic
Wed 03:24:00 AM 47.0000 -40.0000 86° East 568 654 29,000  Level FlightAware Transoceanic
Wed 03:25:00 AM 47.0095 -39.7783 87° East 568 654 29,000  Level FlightAware Transoceanic
Wed 03:26:00 AM 47.0185 -39.5566 87° East 568 654 29,000  Level FlightAware Transoceanic
Wed 03:27:00 AM 47.0271 -39.3348 87° East 568 654 29,000  Level FlightAware Transoceanic
Wed 03:28:00 AM 47.0353 -39.1129 87° East 568 654 29,000  Level FlightAware Transoceanic
Wed 03:29:00 AM 47.0430 -38.8910 87° East 568 654 29,000  Level FlightAware Transoceanic
Wed 03:30:00 AM 47.0503 -38.6690 87° East 568 654 29,000  Level FlightAware Transoceanic
Wed 03:31:00 AM 47.0572 -38.4469 87° East 568 654 29,000  Level FlightAware Transoceanic
Wed 03:32:00 AM 47.0637 -38.2248 88° East 568 654 29,000  Level FlightAware Transoceanic
Wed 03:33:00 AM 47.0697 -38.0026 88° East 568 654 29,000  Level FlightAware Transoceanic
Wed 03:34:00 AM 47.0753 -37.7804 88° East 568 654 29,000  Level FlightAware Transoceanic
Wed 03:35:00 AM 47.0804 -37.5581 88° East 568 654 29,000  Level FlightAware Transoceanic
Wed 03:36:00 AM 47.0852 -37.3358 88° East 568 654 29,000  Level FlightAware Transoceanic
Wed 03:37:00 AM 47.0895 -37.1135 88° East 568 654 29,000  Level FlightAware Transoceanic
Wed 03:38:00 AM 47.0934 -36.8911 89° East 568 654 29,000  Level FlightAware Transoceanic
Wed 03:39:00 AM 47.0968 -36.6687 89° East 568 654 29,000  Level FlightAware Transoceanic
Wed 03:40:00 AM 47.0998 -36.4463 89° East 568 654 29,000  Level FlightAware Transoceanic
Wed 03:41:00 AM 47.1024 -36.2238 89° East 568 654 29,000  Level FlightAware Transoceanic
Wed 03:42:00 AM 47.1046 -36.0013 89° East 568 654 29,000  Level FlightAware Transoceanic
Wed 03:43:00 AM 47.1063 -35.7788 89° East 568 654 29,000  Level FlightAware Transoceanic
Wed 03:44:00 AM 47.1076 -35.5563 90° East 568 654 29,000  Level FlightAware Transoceanic
Wed 03:45:00 AM 47.1085 -35.3338 90° East 568 654 29,000  Level FlightAware Transoceanic
Wed 03:46:00 AM 47.1089 -35.1113 90° East 568 654 29,000  Level FlightAware Transoceanic
Wed 03:47:00 AM 47.1089 -34.8887 90° East 568 654 29,000  Level FlightAware Transoceanic
Wed 03:48:00 AM 47.1085 -34.6662 90° East 568 654 29,000  Level FlightAware Transoceanic
Wed 03:49:00 AM 47.1076 -34.4437 90° East 568 654 29,000  Level FlightAware Transoceanic
Wed 03:50:00 AM 47.1063 -34.2212 91° East 568 654 29,000  Level FlightAware Transoceanic
Wed 03:51:00 AM 47.1046 -33.9987 91° East 568 654 29,000  Level FlightAware Transoceanic
Wed 03:52:00 AM 47.1024 -33.7762 91° East 568 654 29,000  Level FlightAware Transoceanic
Wed 03:53:00 AM 47.0998 -33.5537 91° East 568 654 29,000  Level FlightAware Transoceanic
Wed 03:54:00 AM 47.0968 -33.3313 91° East 568 654 29,000  Level FlightAware Transoceanic
Wed 03:55:00 AM 47.0934 -33.1089 91° East 568 654 29,000  Level FlightAware Transoceanic
Wed 03:56:00 AM 47.0895 -32.8865 92° East 568 654 29,000  Level FlightAware Transoceanic
Wed 03:57:00 AM 47.0852 -32.6642 92° East 568 654 29,000  Level FlightAware Transoceanic
Wed 03:58:00 AM 47.0804 -32.4419 92° East 568 654 29,000  Level FlightAware Transoceanic
Wed 03:59:00 AM 47.0753 -32.2196 92° East 568 654 29,000  Level FlightAware Transoceanic
Wed 04:00:00 AM 47.0697 -31.9974 92° East 568 654 29,000  Level FlightAware Transoceanic
Wed 04:01:00 AM 47.0637 -31.7752 92° East 568 654 29,000  Level FlightAware Transoceanic
Wed 04:02:00 AM 47.0572 -31.5531 93° East 568 654 29,000  Level FlightAware Transoceanic
Wed 04:03:00 AM 47.0503 -31.3310 93° East 568 654 29,000  Level FlightAware Transoceanic
Wed 04:04:00 AM 47.0430 -31.1090 93° East 568 654 29,000  Level FlightAware Transoceanic
Wed 04:05:00 AM 47.0353 -30.8871 93° East 568 654 29,000  Level FlightAware Transoceanic
Wed 04:06:00 AM 47.0271 -30.6652 93° East 568 654 29,000  Level FlightAware Transoceanic
Wed 04:07:00 AM 47.0185 -30.4434 93° East 568 654 29,000  Level FlightAware Transoceanic
Wed 04:08:00 AM 47.0095 -30.2217 93° East 568 654 29,000 45 Level FlightAware Transoceanic
Wed 04:09:00 AM 47.0005 -30.0119 94° East  Level FlightAware Approximate
Wed 04:10:00 AM 46.9911 -29.8022 94° East  Level FlightAware Approximate
Wed 04:11:00 AM 47.0079 -29.8140 86° East  Level FlightAware Approximate
Wed 04:12:00 AM 47.0165 -29.6041 87° East  Level FlightAware Approximate
Wed 04:13:00 AM 47.0246 -29.3942 87° East  Level FlightAware Approximate
Wed 04:14:00 AM 47.0324 -29.1842 87° East  Level FlightAware Approximate
Wed 04:15:00 AM 47.0398 -28.9742 87° East  Level FlightAware Approximate
Wed 04:16:00 AM 47.0468 -28.7641 87° East  Level FlightAware Approximate
Wed 04:17:00 AM 47.0535 -28.5539 87° East  Level FlightAware Approximate
Wed 04:18:00 AM 47.0597 -28.3437 87° East  Level FlightAware Approximate
Wed 04:19:00 AM 47.0656 -28.1335 88° East  Level FlightAware Approximate
Wed 04:20:00 AM 47.0711 -27.9232 88° East  Level FlightAware Approximate
Wed 04:21:00 AM 47.0762 -27.7129 88° East  Level FlightAware Approximate
Wed 04:22:00 AM 47.0809 -27.5025 88° East  Level FlightAware Approximate
Wed 04:23:00 AM 47.0852 -27.2921 88° East  Level FlightAware Approximate
Wed 04:24:00 AM 47.0892 -27.0816 88° East  Level FlightAware Approximate
Wed 04:25:00 AM 47.0927 -26.8712 89° East  Level FlightAware Approximate
Wed 04:26:00 AM 47.0959 -26.6607 89° East  Level FlightAware Approximate
Wed 04:27:00 AM 47.0987 -26.4501 89° East  Level FlightAware Approximate
Wed 04:28:00 AM 47.1011 -26.2396 89° East  Level FlightAware Approximate
Wed 04:29:00 AM 47.1031 -26.0290 89° East  Level FlightAware Approximate
Wed 04:30:00 AM 47.1047 -25.8185 89° East  Level FlightAware Approximate
Wed 04:31:00 AM 47.1060 -25.6079 89° East  Level FlightAware Approximate
Wed 04:32:00 AM 47.1068 -25.3973 90° East  Level FlightAware Approximate
Wed 04:33:00 AM 47.1073 -25.1867 90° East  Level FlightAware Approximate
Wed 04:34:00 AM 47.1074 -24.9761 90° East  Level FlightAware Approximate
Wed 04:35:00 AM 47.1071 -24.7655 90° East  Level FlightAware Approximate
Wed 04:36:00 AM 47.1064 -24.5549 90° East  Level FlightAware Approximate
Wed 04:37:00 AM 47.1053 -24.3443 90° East  Level FlightAware Approximate
Wed 04:38:00 AM 47.1038 -24.1337 91° East  Level FlightAware Approximate
Wed 04:39:00 AM 47.1020 -23.9231 91° East  Level FlightAware Approximate
Wed 04:40:00 AM 47.0998 -23.7126 91° East  Level FlightAware Approximate
Wed 04:41:00 AM 47.0973 -23.5021 91° East  Level FlightAware Approximate
Wed 04:42:00 AM 47.0945 -23.2915 91° East  Level FlightAware Approximate
Wed 04:43:00 AM 47.0913 -23.0810 91° East  Level FlightAware Approximate
Wed 04:44:00 AM 47.0877 -22.8706 91° East  Level FlightAware Approximate
Wed 04:45:00 AM 47.0837 -22.6602 92° East  Level FlightAware Approximate
Wed 04:46:00 AM 47.0793 -22.4498 92° East  Level FlightAware Approximate
Wed 04:47:00 AM 47.0746 -22.2394 92° East  Level FlightAware Approximate
Wed 04:48:00 AM 47.0695 -22.0291 92° East  Level FlightAware Approximate
Wed 04:49:00 AM 47.0639 -21.8188 92° East  Level FlightAware Approximate
Wed 04:50:00 AM 47.0580 -21.6085 92° East  Level FlightAware Approximate
Wed 04:51:00 AM 47.0517 -21.3983 92° East  Level FlightAware Approximate
Wed 04:52:00 AM 47.0450 -21.1882 93° East  Level FlightAware Approximate
Wed 04:53:00 AM 47.0380 -20.9781 93° East  Level FlightAware Approximate
Wed 04:54:00 AM 47.0305 -20.7681 93° East  Level FlightAware Approximate
Wed 04:55:00 AM 47.0227 -20.5581 93° East  Level FlightAware Approximate
Wed 04:56:00 AM 47.0145 -20.3482 93° East  Level FlightAware Approximate
Wed 04:57:00 AM 47.0059 -20.1384 93° East  Level FlightAware Approximate
Wed 04:58:00 AM 46.9814 -19.9339 112° Southeast  Level FlightAware Approximate
Wed 04:59:00 AM 46.9265 -19.7399 112° Southeast  Level FlightAware Approximate
Wed 05:00:00 AM 46.8713 -19.5463 113° Southeast  Level FlightAware Approximate
Wed 05:01:00 AM 46.8158 -19.3531 113° Southeast  Level FlightAware Approximate
Wed 05:02:00 AM 46.7599 -19.1603 113° Southeast  Level FlightAware Approximate
Wed 05:03:00 AM 46.7037 -18.9679 113° Southeast  Level FlightAware Approximate
Wed 05:04:00 AM 46.6472 -18.7759 113° Southeast  Level FlightAware Approximate
Wed 05:05:00 AM 46.5904 -18.5843 113° Southeast  Level FlightAware Approximate
Wed 05:06:00 AM 46.5332 -18.3931 113° Southeast  Level FlightAware Approximate
Wed 05:07:00 AM 46.4758 -18.2023 114° Southeast  Level FlightAware Approximate
Wed 05:08:00 AM 46.4180 -18.0120 114° Southeast  Level FlightAware Approximate
Wed 05:09:00 AM 46.3599 -17.8220 114° Southeast  Level FlightAware Approximate
Wed 05:10:00 AM 46.3015 -17.6324 114° Southeast  Level FlightAware Approximate
Wed 05:11:00 AM 46.2427 -17.4432 114° Southeast  Level FlightAware Approximate
Wed 05:12:00 AM 46.1837 -17.2545 114° Southeast  Level FlightAware Approximate
Wed 05:13:00 AM 46.1244 -17.0661 114° Southeast  Level FlightAware Approximate
Wed 05:14:00 AM 46.0647 -16.8782 115° Southeast  Level FlightAware Approximate
Wed 05:15:00 AM 46.0048 -16.6906 115° Southeast  Level FlightAware Approximate
Wed 05:16:00 AM 45.9445 -16.5035 115° Southeast  Level FlightAware Approximate
Wed 05:17:00 AM 45.8839 -16.3168 115° Southeast  Level FlightAware Approximate
Wed 05:18:00 AM 45.8231 -16.1304 115° Southeast  Level FlightAware Approximate
Wed 05:19:00 AM 45.7619 -15.9445 115° Southeast  Level FlightAware Approximate
Wed 05:20:00 AM 45.7004 -15.7590 115° Southeast  Level FlightAware Approximate
Wed 05:21:00 AM 45.6386 -15.5739 115° Southeast  Level FlightAware Approximate
Wed 05:22:00 AM 45.5765 -15.3892 116° Southeast  Level FlightAware Approximate
Wed 05:23:00 AM 45.5142 -15.2050 116° Southeast  Level FlightAware Approximate
Wed 05:24:00 AM 45.4515 -15.0211 116° Southeast  Level FlightAware Approximate
Wed 05:25:00 AM 45.3889 -14.8374 116° Southeast  Level FlightAware Approximate
Wed 05:26:00 AM 45.3260 -14.6540 116° Southeast  Level FlightAware Approximate
Wed 05:27:00 AM 45.2629 -14.4711 116° Southeast  Level FlightAware Approximate
Wed 05:28:00 AM 45.1994 -14.2886 116° Southeast  Level FlightAware Approximate
Wed 05:29:00 AM 45.1356 -14.1066 116° Southeast  Level FlightAware Approximate
Wed 05:30:00 AM 45.0716 -13.9249 116° Southeast  Level FlightAware Approximate
Wed 05:31:00 AM 45.0072 -13.7436 117° Southeast  Level FlightAware Approximate
Wed 05:32:00 AM 44.9426 -13.5627 117° Southeast  Level FlightAware Approximate
Wed 05:33:00 AM 44.8777 -13.3823 117° Southeast  Level FlightAware Approximate
Wed 05:34:00 AM 44.8125 -13.2022 117° Southeast  Level FlightAware Approximate
Wed 05:35:00 AM 44.7471 -13.0226 117° Southeast  Level FlightAware Approximate
Wed 05:35:42 AM 44.7800 -12.4800 117° Southeast 526 605 33,000  Level FlightAware ADS-B
Wed 05:36:00 AM 44.6813 -12.8433 117° Southeast  Level FlightAware Approximate
Wed 05:36:22 AM 44.7370 -12.3760 120° Southeast 526 605 33,000  Level FlightAware ADS-B
Wed 05:37:10 AM 44.6880 -12.2550 120° Southeast 526 605 33,000  Level FlightAware ADS-B
Wed 05:37:46 AM 44.6510 -12.1640 120° Southeast 526 605 33,000  Level FlightAware ADS-B
Wed 05:38:46 AM 44.5550 -11.9550 123° Southeast 525 604 33,000  Level FlightAware ADS-B
Wed 05:39:27 AM 44.4960 -11.8180 121° Southeast 525 604 33,000 419 Level FlightAware ADS-B
Wed 05:40:12 AM 44.4390 -11.6900 122° Southeast 527 606 33,600 706 Climbing FlightAware ADS-B
Wed 05:40:52 AM 44.3880 -11.5740 122° Southeast 527 606 34,000 300 Climbing FlightAware ADS-B
Wed 05:41:32 AM 44.3360 -11.4550 121° Southeast 527 606 34,000  Level FlightAware ADS-B
Wed 05:42:12 AM 44.2850 -11.3390 122° Southeast 527 606 34,000  Level FlightAware ADS-B
Wed 05:42:57 AM 44.2280 -11.2090 121° Southeast 526 605 34,000  Level FlightAware ADS-B
Wed 05:43:42 AM 44.1700 -11.0800 122° Southeast 528 608 34,000  Level FlightAware ADS-B
Wed 05:44:20 AM 44.1220 -10.9730 122° Southeast 529 609 34,000  Level FlightAware ADS-B
Wed 05:46:33 AM 43.9660 -10.6270 122° Southeast 530 610 34,000  Level FlightAware ADS-B
Wed 05:47:24 AM 43.8800 -10.4380 122° Southeast 534 615 34,000  Level FlightAware ADS-B
Wed 05:48:04 AM 43.8280 -10.3260 123° Southeast 535 616 34,000  Level FlightAware ADS-B
Wed 05:48:49 AM 43.7670 -10.1930 122° Southeast 536 617 34,000  Level FlightAware ADS-B
Wed 05:49:24 AM 43.7200 -10.0910 122° Southeast 536 617 34,000  Level FlightAware ADS-B
Wed 05:50:04 AM 43.6670 -9.9760 122° Southeast 536 617 34,000  Level FlightAware ADS-B
Wed 05:50:49 AM 43.6070 -9.8490 123° Southeast 537 618 34,000  Level FlightAware ADS-B
Wed 05:51:30 AM 43.5540 -9.7340 122° Southeast 537 618 34,000  Level FlightAware ADS-B
Wed 05:52:09 AM 43.4990 -9.6190 123° Southeast 538 619 34,000  Level FlightAware ADS-B
Wed 05:52:49 AM 43.4440 -9.5020 123° Southeast 537 618 34,000  Level FlightAware ADS-B
Wed 05:53:34 AM 43.3850 -9.3760 123° Southeast 537 618 34,000  Level FlightAware ADS-B
Wed 05:54:28 AM 43.3100 -9.2190 123° Southeast 537 618 34,000  Level FlightAware ADS-B
Wed 05:55:08 AM 43.2560 -9.1050 123° Southeast 537 618 34,000  Level FlightAware ADS-B
Wed 05:55:48 AM 43.2010 -8.9910 123° Southeast 537 618 34,000  Level FlightAware ADS-B
Wed 05:56:23 AM 43.1550 -8.8940 123° Southeast 536 617 34,000  Level FlightAware ADS-B
Wed 05:57:08 AM 43.0920 -8.7640 124° Southeast 536 617 34,000  Level FlightAware ADS-B
Wed 05:57:48 AM 43.0380 -8.6540 124° Southeast 535 616 34,000  Level FlightAware ADS-B
Wed 05:58:28 AM 42.9820 -8.5390 124° Southeast 536 617 34,000  Level FlightAware ADS-B
Wed 05:59:13 AM 42.9310 -8.4050 117° Southeast 536 617 34,000  Level FlightAware ADS-B
Wed 05:59:53 AM 42.9160 -8.2820 99° East 533 613 34,000  Level FlightAware ADS-B
Wed 06:00:38 AM 42.9070 -8.1220 94° East 532 612 34,000  Level FlightAware ADS-B
Wed 06:01:18 AM 42.9000 -7.9880 94° East 533 613 34,000  Level FlightAware ADS-B
Wed 06:01:58 AM 42.8920 -7.8570 95° East 533 613 34,000  Level FlightAware ADS-B
Wed 06:02:38 AM 42.8830 -7.7200 95° East 534 615 34,000  Level FlightAware ADS-B
Wed 06:03:23 AM 42.8720 -7.5690 96° East 535 616 34,000  Level FlightAware ADS-B
Wed 06:04:19 AM 42.8590 -7.3820 95° East 536 617 34,000  Level FlightAware ADS-B
Wed 06:04:59 AM 42.8490 -7.2470 96° East 537 618 34,000  Level FlightAware ADS-B
Wed 06:05:39 AM 42.8400 -7.1120 95° East 537 618 34,000  Level FlightAware ADS-B
Wed 06:06:24 AM 42.8280 -6.9610 96° East 538 619 34,000  Level FlightAware ADS-B
Wed 06:07:09 AM 42.8170 -6.8130 96° East 538 619 34,000  Level FlightAware ADS-B
Wed 06:07:49 AM 42.8070 -6.6750 96° East 537 618 34,000  Level FlightAware ADS-B
Wed 06:08:24 AM 42.7980 -6.5640 96° East 538 619 34,000  Level FlightAware ADS-B
Wed 06:09:07 AM 42.7870 -6.4120 96° East 540 621 34,000  Level FlightAware ADS-B
Wed 06:09:47 AM 42.7770 -6.2840 96° East 540 621 34,000  Level FlightAware ADS-B
Wed 06:10:27 AM 42.7650 -6.1420 97° East 541 623 34,000  Level FlightAware ADS-B
Wed 06:11:42 AM 42.7450 -5.8890 96° East 540 621 34,000  Level FlightAware ADS-B
Wed 06:12:23 AM 42.7330 -5.7550 97° East 540 621 34,000  Level FlightAware ADS-B
Wed 06:13:07 AM 42.7210 -5.6030 96° East 539 620 34,000  Level FlightAware ADS-B
Wed 06:13:47 AM 42.7090 -5.4720 97° East 540 621 34,000  Level FlightAware ADS-B
Wed 06:14:32 AM 42.6960 -5.3170 96° East 540 621 34,000  Level FlightAware ADS-B
Wed 06:14:53 AM 42.6890 -5.2470 98° East 540 621 34,000  Level FlightAware ADS-B
Wed 06:15:59 AM 42.6750 -5.0580 96° East 540 621 34,000  Level FlightAware ADS-B
Wed 06:17:27 AM 42.6470 -4.7760 98° East 540 621 34,000  Level FlightAware ADS-B
Wed 06:18:08 AM 42.6300 -4.5980 97° East 539 620 34,000  Level FlightAware ADS-B
Wed 06:18:48 AM 42.6180 -4.4700 97° East 539 620 34,000  Level FlightAware ADS-B
Wed 06:19:23 AM 42.6050 -4.3400 98° East 538 619 34,000  Level FlightAware ADS-B
Wed 06:20:04 AM 42.5920 -4.2100 98° East 537 618 34,000  Level FlightAware ADS-B
Wed 06:20:48 AM 42.5770 -4.0600 98° East 536 617 34,000  Level FlightAware ADS-B
Wed 06:21:23 AM 42.5660 -3.9430 97° East 535 616 34,000  Level FlightAware ADS-B
Wed 06:22:11 AM 42.5490 -3.7810 98° East 533 613 34,000  Level FlightAware ADS-B
Wed 06:22:56 AM 42.5350 -3.6450 98° East 532 612 34,000  Level FlightAware ADS-B
Wed 06:23:36 AM 42.5210 -3.5070 98° East 531 611 34,000  Level FlightAware ADS-B
Wed 06:24:21 AM 42.5050 -3.3590 98° East 530 610 34,000  Level FlightAware ADS-B
Wed 06:25:01 AM 42.4910 -3.2250 98° East 527 606 34,000  Level FlightAware ADS-B
Wed 06:25:26 AM 42.4820 -3.1440 99° East 525 604 34,000  Level FlightAware ADS-B
Wed 06:26:13 AM 42.4650 -2.9910 99° East 522 601 34,000  Level FlightAware ADS-B
Wed 06:26:53 AM 42.4480 -2.8600 100° East 520 598 34,000  Level FlightAware ADS-B
Wed 06:27:36 AM 42.4220 -2.7310 105° East 518 596 34,000  Level FlightAware ADS-B
Wed 06:28:13 AM 42.3990 -2.6120 105° East 519 597 34,000  Level FlightAware ADS-B
Wed 06:28:57 AM 42.3680 -2.4680 106° East 521 600 34,000  Level FlightAware ADS-B
Wed 06:29:41 AM 42.3430 -2.3460 105° East 522 601 34,000  Level FlightAware ADS-B
Wed 06:30:21 AM 42.3150 -2.2110 106° East 522 601 34,000  Level FlightAware ADS-B
Wed 06:31:01 AM 42.2880 -2.0860 106° East 523 602 34,000  Level FlightAware ADS-B
Wed 06:31:41 AM 42.2620 -1.9630 106° East 523 602 34,000  Level FlightAware ADS-B
Wed 06:32:27 AM 42.2300 -1.8130 106° East 524 603 34,000  Level FlightAware ADS-B
Wed 06:33:13 AM 42.1980 -1.6680 107° East 526 605 34,000  Level FlightAware ADS-B
Wed 06:33:53 AM 42.1710 -1.5460 107° East 527 606 34,000  Level FlightAware ADS-B
Wed 06:34:35 AM 42.1420 -1.4130 106° East 528 608 34,000  Level FlightAware ADS-B
Wed 06:35:13 AM 42.1160 -1.2900 106° East 530 610 34,000  Level FlightAware ADS-B
Wed 06:35:53 AM 42.0880 -1.1630 107° East 531 611 34,000  Level FlightAware ADS-B
Wed 06:36:33 AM 42.0600 -1.0370 107° East 532 612 34,000  Level FlightAware ADS-B
Wed 06:37:13 AM 42.0320 -0.9160 107° East 534 615 34,000  Level FlightAware ADS-B
Wed 06:37:57 AM 42.0000 -0.7700 106° East 535 616 34,000  Level FlightAware ADS-B
Wed 06:38:43 AM 41.9660 -0.6200 107° East 536 617 34,000  Level FlightAware ADS-B
Wed 06:39:23 AM 41.9380 -0.4960 107° East 536 617 34,000  Level FlightAware ADS-B
Wed 06:40:07 AM 41.9060 -0.3570 107° East 535 616 34,000  Level FlightAware ADS-B
Wed 06:40:47 AM 41.8760 -0.2270 107° East 535 616 34,000  Level FlightAware ADS-B
Wed 06:41:27 AM 41.8470 -0.1030 107° East 535 616 34,000  Level FlightAware ADS-B
Wed 06:42:11 AM 41.8140 0.0400 107° East 535 616 34,000  Level FlightAware ADS-B
Wed 06:42:51 AM 41.7850 0.1630 108° East 534 615 34,000  Level FlightAware ADS-B
Wed 06:43:35 AM 41.7520 0.3040 107° East 533 613 34,000  Level FlightAware ADS-B
Wed 06:44:17 AM 41.7210 0.4330 108° East 532 612 34,000  Level FlightAware ADS-B
Wed 06:44:57 AM 41.6900 0.5620 108° East 532 612 34,000  Level FlightAware ADS-B
Wed 06:45:42 AM 41.6570 0.6990 108° East 532 612 34,000  Level FlightAware ADS-B
Wed 06:46:21 AM 41.6250 0.8230 109° East 532 612 34,000  Level FlightAware ADS-B
Wed 06:47:16 AM 41.5850 0.9760 109° East 532 612 34,000  Level FlightAware ADS-B
Wed 06:48:02 AM 41.5430 1.1330 110° East 532 612 34,000  Level FlightAware ADS-B
Wed 06:48:42 AM 41.5130 1.2580 108° East 533 613 34,000  Level FlightAware ADS-B
Wed 06:49:27 AM 41.4810 1.4000 107° East 534 615 34,000  Level FlightAware ADS-B
Wed 06:50:07 AM 41.4520 1.5260 107° East 534 615 34,000  Level FlightAware ADS-B
Wed 06:50:51 AM 41.4200 1.6640 107° East 534 615 34,000  Level FlightAware ADS-B
Wed 06:51:30 AM 41.3900 1.7860 108° East 534 615 34,000  Level FlightAware ADS-B
Wed 06:52:15 AM 41.3540 1.9250 109° East 532 612 34,000  Level FlightAware ADS-B
Wed 06:52:55 AM 41.3220 2.0490 109° East 533 613 34,000  Level FlightAware ADS-B
Wed 06:53:35 AM 41.2950 2.1750 106° East 534 615 34,000  Level FlightAware ADS-B
Wed 06:54:18 AM 41.2720 2.3120 103° East 533 613 34,000  Level FlightAware ADS-B
Wed 06:55:03 AM 41.2490 2.4560 102° East 533 613 34,000  Level FlightAware ADS-B
Wed 06:55:43 AM 41.2280 2.5840 102° East 534 615 34,000  Level FlightAware ADS-B
Wed 06:56:27 AM 41.2050 2.7250 102° East 534 615 34,000  Level FlightAware ADS-B
Wed 06:57:07 AM 41.1830 2.8530 103° East 534 615 34,000  Level FlightAware ADS-B
Wed 06:57:47 AM 41.1610 2.9800 103° East 534 615 34,000  Level FlightAware ADS-B
Wed 06:58:32 AM 41.1360 3.1240 103° East 534 615 34,000  Level FlightAware ADS-B
Wed 06:59:12 AM 41.1150 3.2450 103° East 534 615 34,000 571 Level FlightAware ADS-B
Wed 06:59:56 AM 41.0890 3.3920 103° East 535 616 34,800 1,163 Climbing FlightAware ADS-B
Wed 07:00:50 AM 41.0670 3.5160 103° East 530 610 35,900 402 Climbing FlightAware ADS-B
Wed 07:02:55 AM 40.9940 3.9220 100° East 535 616 36,000 36 Climbing FlightAware ADS-B
Wed 07:03:00 AM 41.0128 3.9271 100° East  Level Estimated
Wed 07:03:35 AM 40.9650 4.0840 103° East 538 619 36,000  Level FlightAware ADS-B
Wed 07:04:15 AM 40.9410 4.2130 104° East 542 624 36,000  Level FlightAware ADS-B
Wed 07:04:55 AM 40.9170 4.3450 103° East 543 625 36,000  Level FlightAware ADS-B
Wed 07:05:33 AM 40.8950 4.4640 104° East 544 626 36,000  Level FlightAware ADS-B
Wed 07:06:14 AM 40.8700 4.5960 104° East 546 628 36,000  Level FlightAware ADS-B
Wed 07:07:16 AM 40.8450 4.7750 100° East 546 628 36,000  Level FlightAware ADS-B
Wed 07:07:48 AM 40.8350 4.9020 96° East 544 626 36,000  Level FlightAware ADS-B
Wed 07:08:36 AM 40.8240 5.0310 96° East 543 625 36,000  Level FlightAware ADS-B
Wed 07:09:33 AM 40.8050 5.2200 98° East 541 623 36,000  Level FlightAware ADS-B
Wed 07:10:09 AM 40.7960 5.3200 97° East 541 623 36,000  Level FlightAware ADS-B
Wed 07:10:56 AM 40.7770 5.5130 97° East 537 618 36,000  Level FlightAware ADS-B
Wed 07:13:00 AM 40.7188 5.9018 101° East  Level Estimated
Wed 07:13:04 AM 40.7350 5.9300 101° East 533 613 36,000  Level FlightAware ADS-B
Wed 07:13:48 AM 40.7190 6.0750 98° East 531 611 36,000  Level FlightAware ADS-B
Wed 07:14:23 AM 40.7080 6.1870 97° East 530 610 36,000  Level FlightAware ADS-B
Wed 07:15:03 AM 40.6940 6.3120 98° East 530 610 36,000  Level FlightAware ADS-B
Wed 07:15:44 AM 40.6810 6.4430 97° East 529 609 36,000  Level FlightAware ADS-B
Wed 07:16:28 AM 40.6650 6.5860 98° East 528 608 36,000  Level FlightAware ADS-B
Wed 07:17:13 AM 40.6490 6.7330 98° East 528 608 36,000  Level FlightAware ADS-B
Wed 07:17:53 AM 40.6360 6.8540 98° East 529 609 36,000  Level FlightAware ADS-B
Wed 07:18:38 AM 40.6190 7.0010 99° East 528 608 36,000  Level FlightAware ADS-B
Wed 07:19:18 AM 40.6050 7.1280 98° East 530 610 36,000  Level FlightAware ADS-B
Wed 07:19:58 AM 40.5900 7.2560 99° East 529 609 36,000  Level FlightAware ADS-B
Wed 07:20:43 AM 40.5740 7.3990 98° East 531 611 36,000  Level FlightAware ADS-B
Wed 07:21:23 AM 40.5550 7.5250 101° East 529 609 36,000  Level FlightAware ADS-B
Wed 07:22:08 AM 40.5310 7.6670 102° East 527 606 36,000  Level FlightAware ADS-B
Wed 07:22:48 AM 40.5110 7.7920 102° East 528 608 36,000  Level FlightAware ADS-B
Wed 07:23:28 AM 40.4920 7.9180 101° East 528 608 36,000  Level FlightAware ADS-B
Wed 07:24:13 AM 40.4700 8.0600 101° East 528 608 36,000  Level FlightAware ADS-B
Wed 07:24:53 AM 40.4500 8.1820 102° East 528 608 36,000  Level FlightAware ADS-B
Wed 07:25:33 AM 40.4300 8.3110 101° East 525 604 36,000 150 Level FlightAware ADS-B
Wed 07:26:13 AM 40.4100 8.4360 102° East 523 602 36,200 750 Climbing FlightAware ADS-B
Wed 07:26:53 AM 40.3900 8.5590 102° East 520 598 37,000 600 Climbing FlightAware ADS-B
Wed 07:27:33 AM 40.3700 8.6840 102° East 526 605 37,000  Level FlightAware ADS-B
Wed 07:28:13 AM 40.3490 8.8090 102° East 527 606 37,000  Level FlightAware ADS-B
Wed 07:28:54 AM 40.3280 8.9360 102° East 524 603 37,000  Level FlightAware ADS-B
Wed 07:29:34 AM 40.3070 9.0600 102° East 524 603 37,000  Level FlightAware ADS-B
Wed 07:30:29 AM 40.2780 9.2300 103° East 524 603 37,000  Level FlightAware ADS-B
Wed 07:31:14 AM 40.2550 9.3690 102° East 523 602 37,000  Level FlightAware ADS-B
Wed 07:31:54 AM 40.2340 9.4930 102° East 522 601 37,000  Level FlightAware ADS-B
Wed 07:32:34 AM 40.2130 9.6160 103° East 520 598 37,000  Level FlightAware ADS-B
Wed 07:33:14 AM 40.1910 9.7380 103° East 517 595 37,000  Level FlightAware ADS-B
Wed 07:33:54 AM 40.1700 9.8600 103° East 514 592 37,000  Level FlightAware ADS-B
Wed 07:34:34 AM 40.1490 9.9800 103° East 512 589 37,000  Level FlightAware ADS-B
Wed 07:35:24 AM 40.1220 10.1300 103° East 510 587 37,000  Level FlightAware ADS-B
Wed 07:36:04 AM 40.1010 10.2500 103° East 509 586 37,000  Level FlightAware ADS-B
Wed 07:36:50 AM 40.0770 10.3870 103° East 508 585 37,000  Level FlightAware ADS-B
Wed 07:37:29 AM 40.0550 10.5040 104° East 508 585 37,000  Level FlightAware ADS-B
Wed 07:38:14 AM 40.0310 10.6380 103° East 506 582 37,000  Level FlightAware ADS-B
Wed 07:38:54 AM 40.0090 10.7560 104° East 506 582 37,000  Level FlightAware ADS-B
Wed 07:39:34 AM 39.9870 10.8750 104° East 506 582 37,000  Level FlightAware ADS-B
Wed 07:40:14 AM 39.9650 10.9970 103° East 506 582 37,000  Level FlightAware ADS-B
Wed 07:40:59 AM 39.9400 11.1280 104° East 507 583 37,000  Level FlightAware ADS-B
Wed 07:41:39 AM 39.9180 11.2470 104° East 507 583 37,000  Level FlightAware ADS-B
Wed 07:42:24 AM 39.8920 11.3840 104° East 507 583 37,000  Level FlightAware ADS-B
Wed 07:43:04 AM 39.8700 11.5000 104° East 508 585 37,000  Level FlightAware ADS-B
Wed 07:44:04 AM 39.8350 11.6810 104° East 509 586 37,000  Level FlightAware ADS-B
Wed 07:44:44 AM 39.8120 11.7990 104° East 509 586 37,000  Level FlightAware ADS-B
Wed 07:45:28 AM 39.7870 11.9300 104° East 510 587 37,000  Level FlightAware ADS-B
Wed 07:46:08 AM 39.7640 12.0490 104° East 510 587 37,000  Level FlightAware ADS-B
Wed 07:46:52 AM 39.7380 12.1790 105° East 510 587 37,000  Level FlightAware ADS-B
Wed 07:47:28 AM 39.7170 12.2860 104° East 510 587 37,000  Level FlightAware ADS-B
Wed 07:48:08 AM 39.6940 12.4010 105° East 510 587 37,000  Level FlightAware ADS-B
Wed 07:48:50 AM 39.6690 12.5290 104° East 510 587 37,000  Level FlightAware ADS-B
Wed 07:49:23 AM 39.6480 12.6290 105° East 509 586 37,000  Level FlightAware ADS-B
Wed 07:50:09 AM 39.6210 12.7620 105° East 509 586 37,000  Level FlightAware ADS-B
Wed 07:50:47 AM 39.5980 12.8770 105° East 508 585 37,000  Level FlightAware ADS-B
Wed 07:51:29 AM 39.5730 12.9980 105° East 508 585 37,000  Level FlightAware ADS-B
Wed 07:52:13 AM 39.5490 13.1280 103° East 510 587 37,000  Level FlightAware ADS-B
Wed 07:52:57 AM 39.5300 13.2590 101° East 508 585 37,000  Level FlightAware ADS-B
Wed 07:53:37 AM 39.5130 13.3790 100° East 508 585 37,000  Level FlightAware ADS-B
Wed 07:54:16 AM 39.5010 13.4960 98° East 508 585 37,000  Level FlightAware ADS-B
Wed 07:54:52 AM 39.4880 13.6040 99° East 507 583 37,000  Level FlightAware ADS-B
Wed 07:55:32 AM 39.4730 13.7260 99° East 505 581 37,000  Level FlightAware ADS-B
Wed 07:56:14 AM 39.4570 13.8520 99° East 505 581 37,000  Level FlightAware ADS-B
Wed 07:56:48 AM 39.4440 13.9500 100° East 504 580 37,000  Level FlightAware ADS-B
Wed 07:57:34 AM 39.4270 14.0870 99° East 504 580 37,000  Level FlightAware ADS-B
Wed 07:58:14 AM 39.4110 14.2060 100° East 504 580 37,000  Level FlightAware ADS-B
Wed 07:58:48 AM 39.3980 14.3060 100° East 504 580 37,000  Level FlightAware ADS-B
Wed 07:59:35 AM 39.3790 14.4450 100° East 504 580 37,000  Level FlightAware ADS-B
Wed 08:00:15 AM 39.3640 14.5640 99° East 504 580 37,000  Level FlightAware ADS-B
Wed 08:00:59 AM 39.3460 14.6940 100° East 504 580 37,000  Level FlightAware ADS-B
Wed 08:01:39 AM 39.3300 14.8130 100° East 504 580 37,000  Level FlightAware ADS-B
Wed 08:02:07 AM 39.3180 14.8960 101° East 504 580 37,000  Level FlightAware ADS-B
Wed 08:02:51 AM 39.3000 15.0290 100° East 503 579 37,000  Level FlightAware ADS-B
Wed 08:03:31 AM 39.2840 15.1470 100° East 503 579 37,000  Level FlightAware ADS-B
Wed 08:04:09 AM 39.2680 15.2570 101° East 502 578 37,000  Level FlightAware ADS-B
Wed 08:04:55 AM 39.2490 15.3920 100° East 502 578 37,000  Level FlightAware ADS-B
Wed 08:05:35 AM 39.2330 15.5070 100° East 502 578 37,000  Level FlightAware ADS-B
Wed 08:06:19 AM 39.2140 15.6390 100° East 502 578 37,000  Level FlightAware ADS-B
Wed 08:07:04 AM 39.2010 15.7240 101° East 500 575 37,000  Level FlightAware ADS-B
Wed 08:07:44 AM 39.1790 15.8790 100° East 500 575 37,000  Level FlightAware ADS-B
Wed 08:08:28 AM 39.1590 16.0170 101° East 500 575 37,000  Level FlightAware ADS-B
Wed 08:09:09 AM 39.1410 16.1340 101° East 500 575 37,000  Level FlightAware ADS-B
Wed 08:09:46 AM 39.1260 16.2390 100° East 500 575 37,000  Level FlightAware ADS-B
Wed 08:10:25 AM 39.1080 16.3560 101° East 502 578 37,000  Level FlightAware ADS-B
Wed 08:11:00 AM 39.0920 16.4620 101° East 503 579 37,000  Level FlightAware ADS-B
Wed 08:12:38 AM 39.0480 16.7040 103° East 503 579 37,000  Level FlightAware ADS-B
Wed 08:13:24 AM 39.0110 16.8390 109° East 508 585 37,000  Level FlightAware ADS-B
Wed 08:14:24 AM 38.9660 17.0550 105° East 510 587 37,000  Level FlightAware ADS-B
Wed 08:17:00 AM 38.8541 17.5169 107° East  Level FlightAware Approximate
Wed 08:17:24 AM 38.8690 17.5140 107° East 511 588 37,000  Level FlightAware ADS-B
Wed 08:18:09 AM 38.8450 17.6260 105° East 511 588 37,000  Level FlightAware ADS-B
Wed 08:18:53 AM 38.8230 17.7360 104° East 511 588 37,000  Level FlightAware ADS-B
Wed 08:19:27 AM 38.8050 17.8210 105° East 511 588 37,000  Level FlightAware ADS-B
Wed 08:20:09 AM 38.7510 18.0060 110° East 515 593 37,000  Level FlightAware ADS-B
Wed 08:20:58 AM 38.7090 18.1900 106° East 518 596 37,000  Level FlightAware ADS-B
Wed 08:21:38 AM 38.6840 18.2990 106° East 521 600 37,000  Level FlightAware ADS-B
Wed 08:22:16 AM 38.6590 18.4090 106° East 523 602 37,000  Level FlightAware ADS-B
Wed 08:22:55 AM 38.6300 18.5300 107° East 525 604 37,000  Level FlightAware ADS-B
Wed 08:23:59 AM 38.5850 18.7190 107° East 530 610 37,000  Level FlightAware ADS-B
Wed 08:24:55 AM 38.5440 18.8900 107° East 535 616 37,000  Level FlightAware ADS-B
Wed 08:25:48 AM 38.5000 19.0720 107° East 540 621 37,000  Level FlightAware ADS-B
Wed 08:26:53 AM 38.4500 19.2590 109° East 544 626 37,000  Level FlightAware ADS-B
Wed 08:27:33 AM 38.4150 19.3920 109° East 544 626 37,000  Level FlightAware ADS-B
Wed 08:28:13 AM 38.3830 19.5110 109° East 546 628 37,000  Level FlightAware ADS-B
Wed 08:28:48 AM 38.3570 19.6080 109° East 547 629 37,000  Level FlightAware ADS-B
Wed 08:29:33 AM 38.3170 19.7570 109° East 549 632 37,000  Level FlightAware ADS-B
Wed 08:30:13 AM 38.2850 19.8760 109° East 550 633 37,000  Level FlightAware ADS-B
Wed 08:30:58 AM 38.2500 20.0040 109° East 551 634 37,000  Level FlightAware ADS-B
Wed 08:31:38 AM 38.2140 20.1350 109° East 551 634 37,000  Level FlightAware ADS-B
Wed 08:32:21 AM 38.1790 20.2670 109° East 552 635 37,000  Level FlightAware ADS-B
Wed 08:33:01 AM 38.1450 20.3860 110° East 553 636 37,000  Level FlightAware ADS-B
Wed 08:33:41 AM 38.1080 20.5100 111° Southeast 554 638 37,000  Level FlightAware ADS-B
Wed 08:34:21 AM 38.0660 20.6280 114° Southeast 553 636 37,000  Level FlightAware ADS-B
Wed 08:35:01 AM 38.0210 20.7480 115° Southeast 552 635 37,000  Level FlightAware ADS-B
Wed 08:35:41 AM 37.9780 20.8610 116° Southeast 552 635 37,000  Level FlightAware ADS-B
Wed 08:36:21 AM 37.9340 20.9780 115° Southeast 552 635 37,000  Level FlightAware ADS-B
Wed 08:37:01 AM 37.8900 21.0940 116° Southeast 552 635 37,000  Level FlightAware ADS-B
Wed 08:37:38 AM 37.8480 21.2040 116° Southeast 552 635 37,000  Level FlightAware ADS-B
Wed 08:38:33 AM 37.7860 21.3630 116° Southeast 548 631 37,000  Level FlightAware ADS-B
Wed 08:39:13 AM 37.7480 21.4630 116° Southeast 545 627 37,000  Level FlightAware ADS-B
Wed 08:39:58 AM 37.6960 21.5960 116° Southeast 543 625 37,000  Level FlightAware ADS-B
Wed 08:40:38 AM 37.6490 21.7150 116° Southeast 542 624 37,000  Level FlightAware ADS-B
Wed 08:41:18 AM 37.6050 21.8310 116° Southeast 540 621 37,000  Level FlightAware ADS-B
Wed 08:42:03 AM 37.5560 21.9550 116° Southeast 540 621 37,000  Level FlightAware ADS-B
Wed 08:42:43 AM 37.5110 22.0700 116° Southeast 539 620 37,000  Level FlightAware ADS-B
Wed 08:43:26 AM 37.4620 22.1910 117° Southeast 542 624 37,000  Level FlightAware ADS-B
Wed 08:44:23 AM 37.4030 22.3470 115° Southeast 544 626 37,000  Level FlightAware ADS-B
Wed 08:45:08 AM 37.3610 22.4860 111° Southeast 549 632 37,000  Level FlightAware ADS-B
Wed 08:45:48 AM 37.3270 22.6030 110° East 548 631 37,000  Level FlightAware ADS-B
Wed 08:46:29 AM 37.2910 22.7250 110° East 547 629 37,000  Level FlightAware ADS-B
Wed 08:47:10 AM 37.2560 22.8470 110° East 545 627 37,000  Level FlightAware ADS-B
Wed 08:47:56 AM 37.2140 22.9890 110° East 547 629 37,000  Level FlightAware ADS-B
Wed 08:48:36 AM 37.1790 23.1050 111° Southeast 550 633 37,000  Level FlightAware ADS-B
Wed 08:49:12 AM 37.1470 23.2130 110° East 553 636 37,000  Level FlightAware ADS-B
Wed 08:49:54 AM 37.1090 23.3420 110° East 555 639 37,000  Level FlightAware ADS-B
Wed 08:50:34 AM 37.0730 23.4590 111° Southeast 554 638 37,000  Level FlightAware ADS-B
Wed 08:51:14 AM 37.0370 23.5790 111° Southeast 551 634 37,000  Level FlightAware ADS-B
Wed 08:51:54 AM 37.0000 23.7010 111° Southeast 552 635 37,000  Level FlightAware ADS-B
Wed 08:52:34 AM 36.9640 23.8210 111° Southeast 551 634 37,000  Level FlightAware ADS-B
Wed 08:53:14 AM 36.9270 23.9400 111° Southeast 552 635 37,000  Level FlightAware ADS-B
Wed 08:53:54 AM 36.8910 24.0560 111° Southeast 553 636 37,000  Level FlightAware ADS-B
Wed 08:54:34 AM 36.8550 24.1720 111° Southeast 554 638 37,000  Level FlightAware ADS-B
Wed 08:55:13 AM 36.8190 24.2920 111° Southeast 554 638 37,000  Level FlightAware ADS-B
Wed 08:56:00 AM 36.7750 24.4320 111° Southeast 554 638 37,000  Level FlightAware ADS-B
Wed 08:56:40 AM 36.7380 24.5500 111° Southeast 552 635 37,000  Level FlightAware ADS-B
Wed 08:57:24 AM 36.6900 24.6800 115° Southeast 546 628 37,000  Level FlightAware ADS-B
Wed 08:58:04 AM 36.6490 24.7910 115° Southeast 543 625 37,000  Level FlightAware ADS-B
Wed 08:58:40 AM 36.6110 24.8930 115° Southeast 541 623 37,000  Level FlightAware ADS-B
Wed 08:59:18 AM 36.5720 25.0000 114° Southeast 539 620 37,000  Level FlightAware ADS-B
Wed 09:00:04 AM 36.5230 25.1330 115° Southeast 541 623 37,000  Level FlightAware ADS-B
Wed 09:00:45 AM 36.4820 25.2460 114° Southeast 541 623 37,000  Level FlightAware ADS-B
Wed 09:01:26 AM 36.4390 25.3620 115° Southeast 544 626 37,000  Level FlightAware ADS-B
Wed 09:02:10 AM 36.3930 25.4870 115° Southeast 546 628 37,000  Level FlightAware ADS-B
Wed 09:02:46 AM 36.3540 25.5900 115° Southeast 547 629 37,000  Level FlightAware ADS-B
Wed 09:03:28 AM 36.3090 25.7120 115° Southeast 547 629 37,000  Level FlightAware ADS-B
Wed 09:04:08 AM 36.2670 25.8230 115° Southeast 548 631 37,000  Level FlightAware ADS-B
Wed 09:04:52 AM 36.2190 25.9480 115° Southeast 547 629 37,000  Level FlightAware ADS-B
Wed 09:05:22 AM 36.1880 26.0330 114° Southeast 546 628 37,000  Level FlightAware ADS-B
Wed 09:06:08 AM 36.1380 26.1630 115° Southeast 543 625 37,000  Level FlightAware ADS-B
Wed 09:06:48 AM 36.0960 26.2750 115° Southeast 540 621 37,000  Level FlightAware ADS-B
Wed 09:07:30 AM 36.0500 26.3950 115° Southeast 541 623 37,000  Level FlightAware ADS-B
Wed 09:08:14 AM 36.0030 26.5140 116° Southeast 540 621 37,000  Level FlightAware ADS-B
Wed 09:08:54 AM 35.9600 26.6260 115° Southeast 541 623 37,000  Level FlightAware ADS-B
Wed 09:09:38 AM 35.9120 26.7510 115° Southeast 539 620 37,000  Level FlightAware ADS-B
Wed 09:10:14 AM 35.8750 26.8450 116° Southeast 536 617 37,000  Level FlightAware ADS-B
Wed 09:11:00 AM 35.8270 26.9690 115° Southeast 533 613 37,000  Level FlightAware ADS-B
Wed 09:12:10 AM 35.7670 27.1340 114° Southeast 533 613 37,000  Level FlightAware ADS-B
Wed 09:12:46 AM 35.7160 27.2500 118° Southeast 535 616 37,000  Level FlightAware ADS-B
Wed 09:13:30 AM 35.6640 27.3830 116° Southeast 537 618 37,000  Level FlightAware ADS-B
Wed 09:14:09 AM 35.6270 27.4780 116° Southeast 538 619 37,000  Level FlightAware ADS-B
Wed 09:15:11 AM 35.5610 27.6440 116° Southeast 537 618 37,000  Level FlightAware ADS-B
Wed 09:15:47 AM 35.5290 27.7290 115° Southeast 537 618 37,000  Level FlightAware ADS-B
Wed 09:16:35 AM 35.4860 27.8420 115° Southeast 537 618 37,000 1,412 Level FlightAware ADS-B
Wed 09:17:12 AM 35.4220 27.9850 119° Southeast 521 600 39,000 1,395 Climbing FlightAware ADS-B
Wed 09:18:01 AM 35.3660 28.1250 116° Southeast 521 600 39,000  Level FlightAware ADS-B
Wed 09:18:42 AM 35.3240 28.2280 117° Southeast 518 596 39,000  Level FlightAware ADS-B
Wed 09:19:27 AM 35.2740 28.3510 116° Southeast 516 594 39,000  Level FlightAware ADS-B
Wed 09:20:07 AM 35.2320 28.4530 117° Southeast 515 593 39,000  Level FlightAware ADS-B
Wed 09:20:46 AM 35.1920 28.5510 117° Southeast 514 592 39,000  Level FlightAware ADS-B
Wed 09:21:31 AM 35.1420 28.6710 117° Southeast 515 593 39,000  Level FlightAware ADS-B
Wed 09:22:07 AM 35.1050 28.7620 116° Southeast 517 595 39,000  Level FlightAware ADS-B
Wed 09:22:54 AM 35.0590 28.8740 117° Southeast 516 594 39,000  Level FlightAware ADS-B
Wed 09:23:30 AM 35.0160 28.9760 117° Southeast 39,000  Level FlightAware ADS-B
Wed 09:24:15 AM 34.9650 29.0980 117° Southeast 518 596 39,000  Level FlightAware ADS-B
Wed 09:25:01 AM 34.9150 29.2180 117° Southeast 517 595 39,000  Level FlightAware ADS-B
Wed 09:25:41 AM 34.8700 29.3240 117° Southeast 517 595 39,000  Level FlightAware ADS-B
Wed 09:26:23 AM 34.8270 29.4250 117° Southeast 512 589 39,000  Level FlightAware ADS-B
Wed 09:27:03 AM 34.7860 29.5230 117° Southeast 512 589 39,000  Level FlightAware ADS-B
Wed 09:27:47 AM 34.7340 29.6460 117° Southeast 511 588 39,000  Level FlightAware ADS-B
Wed 09:28:24 AM 34.6960 29.7360 117° Southeast 511 588 39,000  Level FlightAware ADS-B
Wed 09:29:04 AM 34.6490 29.8470 117° Southeast 510 587 39,000  Level FlightAware ADS-B
Wed 09:29:47 AM 34.6120 29.9380 116° Southeast 510 587 39,000  Level FlightAware ADS-B
Wed 09:30:30 AM 34.5560 30.0590 119° Southeast 510 587 39,000  Level FlightAware ADS-B
Wed 09:31:25 AM 34.4890 30.1970 120° Southeast 511 588 39,000  Level FlightAware ADS-B
Wed 09:32:05 AM 34.4400 30.2950 121° Southeast 512 589 39,000  Level FlightAware ADS-B
Wed 09:32:45 AM 34.3910 30.3990 120° Southeast 511 588 39,000  Level FlightAware ADS-B
Wed 09:33:26 AM 34.3430 30.4960 121° Southeast 511 588 39,000  Level FlightAware ADS-B
Wed 09:34:07 AM 34.2940 30.5970 120° Southeast 510 587 39,000  Level FlightAware ADS-B
Wed 09:34:46 AM 34.2470 30.6950 120° Southeast 510 587 39,000  Level FlightAware ADS-B
Wed 09:35:27 AM 34.1990 30.7930 121° Southeast 508 585 39,000  Level FlightAware ADS-B
Wed 09:36:12 AM 34.1440 30.9050 121° Southeast 507 583 39,000  Level FlightAware ADS-B
Wed 09:36:53 AM 34.0950 31.0050 121° Southeast 506 582 39,000  Level FlightAware ADS-B
Wed 09:37:33 AM 34.0470 31.1020 121° Southeast 506 582 39,000  Level FlightAware ADS-B
Wed 09:38:14 AM 33.9980 31.2010 121° Southeast 506 582 39,000  Level FlightAware ADS-B
Wed 09:38:50 AM 33.9550 31.2860 121° Southeast 506 582 39,000  Level FlightAware ADS-B
Wed 09:39:34 AM 33.9020 31.3950 120° Southeast 507 583 39,000  Level FlightAware ADS-B
Wed 09:42:00 AM 33.7132 31.7521 122° Southeast  Level FlightAware Approximate
Wed 09:43:00 AM 33.6353 31.8983 123° Southeast  Level FlightAware Approximate
Wed 09:43:44 AM 33.6400 31.9200 123° Southeast 507 583 39,000  Level FlightAware ADS-B
Wed 09:44:43 AM 33.5790 32.0410 121° Southeast 507 583 39,000  Level FlightAware ADS-B
Wed 09:45:24 AM 33.4990 32.1930 122° Southeast 489 563 39,000  Level FlightAware ADS-B
Wed 09:46:04 AM 33.4470 32.2950 121° Southeast 489 563 39,000  Level FlightAware ADS-B
Wed 09:46:56 AM 33.3750 32.4370 121° Southeast 473 544 39,000  Level FlightAware ADS-B
Wed 09:47:44 AM 33.3270 32.5490 117° Southeast 476 548 39,000  Level FlightAware ADS-B
Wed 09:48:22 AM 33.2950 32.6470 111° Southeast 475 547 39,000  Level FlightAware ADS-B
Wed 09:49:07 AM 33.2580 32.7590 112° Southeast 491 565 39,000  Level FlightAware ADS-B
Wed 09:49:48 AM 33.2230 32.8640 112° Southeast 500 575 39,000 -632 Level FlightAware ADS-B
Wed 09:50:23 AM 33.1930 32.9520 112° Southeast 504 580 38,200 -2,400 Descending FlightAware ADS-B
Wed 09:51:03 AM 33.1580 33.0570 112° Southeast 512 589 36,000 -3,459 Descending FlightAware ADS-B
Wed 09:51:48 AM 33.1180 33.1770 112° Southeast 523 602 33,300 -3,360 Descending FlightAware ADS-B
Wed 09:52:43 AM 33.0600 33.3190 116° Southeast 520 598 30,400 -3,000 Descending FlightAware ADS-B
Wed 09:53:24 AM 33.0050 33.4080 126° Southeast 503 579 28,500 -2,906 Descending FlightAware ADS-B
Wed 09:54:51 AM 32.8750 33.6040 128° Southeast 495 570 24,200 -2,600 Descending FlightAware ADS-B
Wed 09:55:24 AM 32.8490 33.6880 110° East 471 542 23,300 -1,421 Descending FlightAware ADS-B
Wed 09:56:07 AM 32.8430 33.7930 94° East 440 506 22,400 -1,295 Descending FlightAware ADS-B
Wed 09:56:52 AM 32.8400 33.8960 92° East 401 461 21,400 -1,481 Descending FlightAware ADS-B
Wed 09:57:24 AM 32.8380 33.9670 92° East 381 438 20,500 -2,132 Descending FlightAware ADS-B
Wed 09:58:08 AM 32.8350 34.0550 92° East 369 425 18,700 -2,530 Descending FlightAware ADS-B
Wed 09:58:47 AM 32.8240 34.1290 100° East 353 406 17,000 -2,632 Descending FlightAware ADS-B
Wed 09:59:05 AM 32.8060 34.1560 128° Southeast 340 391 16,200 -2,595 Descending FlightAware ADS-B
Wed 09:59:24 AM 32.7800 34.1760 147° Southeast 324 373 15,400 -1,351 Descending FlightAware ADS-B
Wed 10:01:36 AM 32.6290 34.1730 181° South 298 343 12,800 -1,667 Descending FlightAware ADS-B
Wed 10:02:24 AM 32.5510 34.1660 184° South 286 329 10,400 -1,738 Descending FlightAware ADS-B
Wed 10:03:23 AM 32.4620 34.1870 169° South 287 330 9,700 -740 Descending FlightAware ADS-B
Wed 10:03:37 AM 32.4490 34.2020 136° Southeast 289 333 9,500 -811 Descending FlightAware ADS-B
Wed 10:04:00 AM 32.4290 34.2260 135° Southeast 287 330 9,200 -766 Descending FlightAware ADS-B
Wed 10:04:24 AM 32.4070 34.2540 133° Southeast 287 330 8,900 -679 Descending FlightAware ADS-B
Wed 10:04:53 AM 32.3810 34.2850 135° Southeast 287 330 8,600 -294 Descending FlightAware ADS-B
Wed 10:06:06 AM 32.3190 34.3580 135° Southeast 284 327 8,400 -658 Descending FlightAware ADS-B
Wed 10:08:00 AM 32.1433 34.6067 140° Southeast  Level FlightAware Approximate
Wed 10:08:41 AM 32.1900 34.5380 140° Southeast 270 311 6,100  Level FlightAware ADS-B
Wed 10:09:29 AM 32.1770 34.5630 122° Southeast 258 297 5,200 -857 Descending FlightAware ADS-B
Wed 10:09:51 AM 32.1410 34.6320 122° Southeast 270 311 5,100  Descending FlightAware ADS-B
Wed 10:10:21 AM 32.1210 34.6670 124° Southeast 245 282 5,200 100 Climbing FlightAware ADS-B
Wed 10:10:51 AM 32.1050 34.6950 124° Southeast 235 270 5,200  Level FlightAware ADS-B
Wed 10:11:26 AM 32.0890 34.7250 122° Southeast 237 273 5,200 -105 Level FlightAware ADS-B
Wed 10:11:48 AM 32.0750 34.7500 123° Southeast 236 272 5,100 -222 Descending FlightAware ADS-B
Wed 10:12:20 AM 32.0460 34.7910 130° Southeast 234 269 5,000 -381 Descending FlightAware ADS-B
Wed 10:12:51 AM 32.0240 34.8160 136° Southeast 215 247 4,700 -429 Descending FlightAware ADS-B
Wed 10:13:02 AM 32.0160 34.8260 133° Southeast 211 243 4,700 -439 Level FlightAware ADS-B
Wed 10:13:32 AM 31.9940 34.8500 137° Southeast 216 249 4,400 -1,111 Descending FlightAware ADS-B
Wed 10:13:56 AM 31.9770 34.8720 132° Southeast 226 260 3,700 -1,636 Descending FlightAware ADS-B
Wed 10:14:16 AM 31.9730 34.8940 102° East 225 259 3,200 -1,395 Descending FlightAware ADS-B
Wed 10:14:39 AM 31.9790 34.9230 76° East 209 241 2,700 -1,132 Descending FlightAware ADS-B
Wed 10:15:09 AM 31.9870 34.9520 72° East 180 207 2,200 -1,000 Descending FlightAware ADS-B
Wed 10:17:00 AM 32.0095 34.8769 289° West  Level Estimated
Wed 10:18:00 AM 32.0095 34.8769 270° West  Level Estimated

Login

Don't have an account? Register now (free) for customized features, flight alerts, and more!